createdAt,value
2018-08-20T00:00:58.988Z,41.83
2018-08-20T00:03:26.302Z,43.40
2018-08-20T00:05:54.358Z,44.20
2018-08-20T00:08:22.263Z,53.30
2018-08-20T00:10:51.622Z,27.80
2018-08-20T00:13:18.586Z,20.10
2018-08-20T00:15:45.906Z,24.87
2018-08-20T00:18:17.529Z,17.40
2018-08-20T00:20:44.472Z,21.03
2018-08-20T00:23:11.454Z,26.20
2018-08-20T00:25:38.483Z,23.53
2018-08-20T00:28:05.466Z,26.07
2018-08-20T00:30:32.421Z,23.47
2018-08-20T00:32:59.413Z,19.57
2018-08-20T00:35:26.394Z,22.33
2018-08-20T00:37:53.393Z,20.93
2018-08-20T00:40:21.039Z,16.60
2018-08-20T00:42:48.100Z,19.73
2018-08-20T00:45:15.126Z,12.43
2018-08-20T00:47:42.088Z,16.97
2018-08-20T00:50:09.681Z,27.90
2018-08-20T00:52:37.018Z,35.50
2018-08-20T00:55:05.426Z,22.33
2018-08-20T00:57:32.376Z,21.83
2018-08-20T00:59:59.586Z,20.23
2018-08-20T01:02:29.387Z,18.20
2018-08-20T01:04:56.744Z,19.20
2018-08-20T01:07:23.978Z,15.68
2018-08-20T01:09:50.922Z,17.03
2018-08-20T01:12:17.864Z,12.83
2018-08-20T01:14:44.870Z,13.83
2018-08-20T01:17:11.801Z,17.07
2018-08-20T01:19:38.770Z,17.50
2018-08-20T01:22:06.150Z,14.90
2018-08-20T01:24:33.205Z,15.60
2018-08-20T01:27:00.207Z,15.47
2018-08-20T01:29:27.185Z,17.17
2018-08-20T01:31:54.146Z,12.20
2018-08-20T01:34:21.146Z,13.90
2018-08-20T01:36:48.155Z,13.00
2018-08-20T01:39:15.106Z,18.70
2018-08-20T01:41:42.075Z,14.10
2018-08-20T01:44:09.067Z,14.73
2018-08-20T01:46:36.059Z,14.20
2018-08-20T01:49:02.981Z,16.80
2018-08-20T01:51:30.309Z,14.17
2018-08-20T01:53:57.265Z,12.87
2018-08-20T01:56:24.213Z,12.50
2018-08-20T01:58:51.219Z,12.80
2018-08-20T02:01:18.223Z,17.37
2018-08-20T02:03:45.238Z,13.93
2018-08-20T02:06:12.263Z,17.87
2018-08-20T02:08:39.243Z,17.03
2018-08-20T02:11:06.204Z,13.87
2018-08-20T02:13:33.286Z,17.57
2018-08-20T02:16:00.281Z,14.80
2018-08-20T02:18:27.249Z,16.30
2018-08-20T02:20:54.558Z,16.60
2018-08-20T02:23:21.564Z,16.47
2018-08-20T02:25:48.488Z,20.27
2018-08-20T02:28:15.477Z,17.17
2018-08-20T02:30:42.459Z,16.77
2018-08-20T02:33:09.456Z,13.80
2018-08-20T02:35:36.477Z,15.77
2018-08-20T02:38:03.442Z,14.77
2018-08-20T02:40:30.404Z,13.90
2018-08-20T02:42:57.368Z,16.50
2018-08-20T02:45:24.360Z,16.20
2018-08-20T02:47:51.335Z,13.57
2018-08-20T02:50:18.541Z,19.50
2018-08-20T02:52:45.562Z,15.83
2018-08-20T02:55:12.715Z,16.90
2018-08-20T02:57:39.796Z,18.30
2018-08-20T03:00:09.369Z,17.00
2018-08-20T03:02:36.470Z,16.67
2018-08-20T03:05:03.723Z,20.83
2018-08-20T03:07:30.693Z,16.17
2018-08-20T03:09:57.956Z,16.10
2018-08-20T03:12:24.926Z,19.23
2018-08-20T03:14:51.900Z,18.00
2018-08-20T03:17:18.978Z,16.27
2018-08-20T03:19:45.963Z,18.47
2018-08-20T03:22:12.925Z,15.57
2018-08-20T03:24:39.905Z,19.63
2018-08-20T03:27:06.841Z,16.60
2018-08-20T03:29:33.797Z,20.20
2018-08-20T03:32:00.910Z,18.77
2018-08-20T03:34:27.848Z,16.90
2018-08-20T03:36:54.818Z,16.47
2018-08-20T03:39:22.118Z,18.57
2018-08-20T03:41:49.058Z,20.27
2018-08-20T03:44:16.057Z,18.60
2018-08-20T03:46:43.043Z,16.40
2018-08-20T03:49:10.113Z,19.87
2018-08-20T03:51:37.106Z,17.07
2018-08-20T03:54:04.229Z,18.50
2018-08-20T03:56:31.297Z,20.03
2018-08-20T03:58:58.332Z,17.80
2018-08-20T04:01:25.658Z,17.53
2018-08-20T04:03:52.955Z,21.40
2018-08-20T04:06:19.961Z,20.63
2018-08-20T04:08:46.950Z,19.37
2018-08-20T04:11:13.936Z,19.17
2018-08-20T04:13:41.202Z,22.17
2018-08-20T04:16:08.139Z,21.70
2018-08-20T04:18:35.103Z,21.23
2018-08-20T04:21:02.100Z,19.53
2018-08-20T04:23:29.063Z,17.80
2018-08-20T04:25:56.026Z,20.20
2018-08-20T04:28:22.973Z,16.97
2018-08-20T04:30:49.941Z,24.77
2018-08-20T04:33:16.929Z,18.37
2018-08-20T04:35:44.324Z,19.03
2018-08-20T04:38:11.342Z,27.30
2018-08-20T04:40:38.309Z,24.63
2018-08-20T04:43:05.800Z,30.10
2018-08-20T04:45:32.774Z,18.47
2018-08-20T04:47:59.830Z,19.43
2018-08-20T04:50:27.344Z,17.70
2018-08-20T04:52:54.125Z,23.93
2018-08-20T04:55:21.101Z,22.50
2018-08-20T04:57:48.120Z,27.47
2018-08-20T05:00:15.078Z,18.90
2018-08-20T05:02:42.066Z,23.23
2018-08-20T05:05:09.015Z,24.10
2018-08-20T05:07:36.017Z,19.43
2018-08-20T05:10:03.542Z,19.07
2018-08-20T05:12:30.423Z,16.20
2018-08-20T05:14:57.493Z,19.20
2018-08-20T05:17:24.626Z,17.70
2018-08-20T05:19:51.965Z,18.47
2018-08-20T05:22:18.931Z,17.13
2018-08-20T05:24:45.903Z,19.87
2018-08-20T05:27:12.866Z,17.60
2018-08-20T05:29:39.848Z,18.83
2018-08-20T05:32:06.900Z,20.33
2018-08-20T05:34:33.883Z,21.50
2018-08-20T05:37:00.898Z,19.50
2018-08-20T05:39:27.906Z,19.87
2018-08-20T05:41:54.837Z,17.90
2018-08-20T05:44:21.862Z,20.33
2018-08-20T05:46:48.882Z,17.40
2018-08-20T05:49:15.872Z,19.57
2018-08-20T05:51:42.961Z,15.70
2018-08-20T05:54:10.166Z,25.47
2018-08-20T05:56:37.186Z,25.23
2018-08-20T05:59:04.372Z,18.77
2018-08-20T06:01:31.393Z,22.87
2018-08-20T06:03:58.338Z,19.20
2018-08-20T06:06:25.359Z,21.93
2018-08-20T06:08:52.354Z,22.60
2018-08-20T06:11:19.363Z,17.77
2018-08-20T06:13:46.334Z,22.27
2018-08-20T06:16:13.399Z,26.90
2018-08-20T06:18:40.381Z,29.80
2018-08-20T06:21:07.477Z,23.87
2018-08-20T06:23:34.577Z,19.40
2018-08-20T06:26:01.676Z,23.63
2018-08-20T06:28:28.768Z,21.13
2018-08-20T06:30:55.810Z,22.87
2018-08-20T06:33:22.948Z,17.90
2018-08-20T06:35:50.360Z,20.13
2018-08-20T06:38:17.419Z,20.47
2018-08-20T06:40:44.486Z,18.53
2018-08-20T06:43:11.710Z,18.83
2018-08-20T06:45:38.701Z,15.40
2018-08-20T06:48:05.928Z,23.50
2018-08-20T06:50:32.937Z,21.70
2018-08-20T06:52:59.988Z,16.37
2018-08-20T06:55:27.012Z,18.80
2018-08-20T06:57:54.106Z,16.60
2018-08-20T07:00:21.195Z,19.43
2018-08-20T07:02:48.254Z,15.13
2018-08-20T07:05:15.304Z,18.63
2018-08-20T07:07:42.420Z,13.00
2018-08-20T07:10:11.950Z,13.87
2018-08-20T07:12:39.165Z,13.50
2018-08-20T07:15:06.788Z,15.03
2018-08-20T07:17:34.034Z,16.83
2018-08-20T07:20:01.259Z,16.87
2018-08-20T07:22:28.358Z,11.87
2018-08-20T07:24:55.375Z,14.43
2018-08-20T07:27:22.615Z,17.60
2018-08-20T07:29:49.597Z,14.30
2018-08-20T07:32:16.567Z,15.03
2018-08-20T07:34:45.091Z,18.57
2018-08-20T07:37:13.484Z,14.30
2018-08-20T07:39:42.239Z,15.07
2018-08-20T07:42:10.114Z,17.63
2018-08-20T07:44:38.040Z,24.07
2018-08-20T07:47:05.755Z,12.40
2018-08-20T07:49:32.830Z,12.70
2018-08-20T07:52:00.017Z,17.90
2018-08-20T07:54:27.678Z,13.43
2018-08-20T07:56:54.939Z,11.20
2018-08-20T07:59:22.027Z,13.07
2018-08-20T08:01:48.973Z,12.80
2018-08-20T08:04:16.021Z,9.70
2018-08-20T08:06:43.033Z,12.40
2018-08-20T08:09:10.836Z,12.40
2018-08-20T08:11:37.851Z,11.30
2018-08-20T08:14:05.689Z,15.63
2018-08-20T08:16:33.003Z,12.77
2018-08-20T08:19:00.080Z,16.33
2018-08-20T08:21:27.107Z,14.97
2018-08-20T08:23:54.049Z,13.50
2018-08-20T08:26:21.500Z,13.47
2018-08-20T08:28:48.438Z,12.70
2018-08-20T08:31:15.438Z,12.50
2018-08-20T08:33:42.481Z,12.43
2018-08-20T08:36:09.474Z,17.80
2018-08-20T08:38:36.437Z,16.07
2018-08-20T08:41:03.437Z,16.13
2018-08-20T08:43:30.415Z,20.70
2018-08-20T08:45:57.423Z,11.20
2018-08-20T08:48:24.429Z,13.37
2018-08-20T08:50:51.460Z,10.17
2018-08-20T08:53:18.413Z,11.90
2018-08-20T08:55:45.418Z,11.33
2018-08-20T08:58:12.384Z,12.27
2018-08-20T09:00:39.401Z,16.70
2018-08-20T09:03:06.296Z,10.40
2018-08-20T09:05:33.297Z,20.33
2018-08-20T09:08:00.298Z,13.50
2018-08-20T09:10:27.322Z,19.57
2018-08-20T09:12:54.293Z,21.43
2018-08-20T09:15:21.320Z,16.97
2018-08-20T09:17:48.253Z,16.13
2018-08-20T09:20:16.461Z,13.63
2018-08-20T09:22:43.570Z,13.20
2018-08-20T09:25:11.636Z,16.10
2018-08-20T09:27:38.961Z,11.00
2018-08-20T09:30:10.220Z,12.63
2018-08-20T09:32:37.238Z,15.67
2018-08-20T09:35:04.854Z,20.30
2018-08-20T09:37:31.931Z,10.73
2018-08-20T09:39:58.905Z,11.93
2018-08-20T09:42:25.889Z,10.23
2018-08-20T09:44:53.198Z,9.60
2018-08-20T09:47:20.219Z,11.27
2018-08-20T09:49:47.148Z,8.60
2018-08-20T09:52:14.215Z,10.03
2018-08-20T09:54:41.344Z,11.77
2018-08-20T09:57:08.424Z,16.10
2018-08-20T09:59:35.458Z,9.60
2018-08-20T10:02:02.510Z,9.10
2018-08-20T10:04:29.552Z,8.97
2018-08-20T10:06:56.525Z,9.80
2018-08-20T10:09:23.637Z,7.23
2018-08-20T10:11:50.666Z,10.90
2018-08-20T10:14:17.686Z,20.67
2018-08-20T10:16:44.895Z,8.93
2018-08-20T10:19:11.972Z,13.30
2018-08-20T10:21:38.953Z,10.53
2018-08-20T10:24:06.268Z,11.77
2018-08-20T10:26:33.279Z,11.83
2018-08-20T10:29:00.347Z,13.93
2018-08-20T10:31:27.475Z,10.70
2018-08-20T10:33:54.551Z,8.10
2018-08-20T10:36:21.539Z,9.63
2018-08-20T10:38:48.612Z,12.80
2018-08-20T10:41:15.942Z,9.03
2018-08-20T10:43:43.200Z,8.73
2018-08-20T10:46:16.126Z,6.90
2018-08-20T10:48:43.468Z,9.07
2018-08-20T10:51:10.593Z,9.33
2018-08-20T10:53:37.648Z,10.50
2018-08-20T10:56:04.871Z,9.30
2018-08-20T10:58:32.053Z,8.43
2018-08-20T11:00:59.411Z,6.97
2018-08-20T11:03:26.852Z,10.47
2018-08-20T11:05:53.983Z,10.00
2018-08-20T11:08:21.140Z,7.17
2018-08-20T11:10:48.347Z,7.47
2018-08-20T11:13:15.518Z,11.10
2018-08-20T11:15:42.638Z,9.50
2018-08-20T11:18:09.778Z,10.60
2018-08-20T11:20:36.890Z,7.77
2018-08-20T11:23:04.284Z,6.80
2018-08-20T11:25:31.656Z,5.73
2018-08-20T11:27:58.791Z,9.03
2018-08-20T11:30:25.830Z,6.23
2018-08-20T11:32:55.423Z,6.40
2018-08-20T11:35:22.469Z,8.80
2018-08-20T11:37:49.543Z,4.83
2018-08-20T11:40:16.673Z,5.30
2018-08-20T11:42:43.788Z,9.10
2018-08-20T11:45:12.512Z,10.03
2018-08-20T11:47:39.619Z,5.77
2018-08-20T11:50:06.725Z,5.80
2018-08-20T11:52:33.863Z,5.77
2018-08-20T11:55:00.935Z,5.57
2018-08-20T11:57:27.992Z,5.00
2018-08-20T11:59:55.061Z,9.87
2018-08-20T12:02:22.444Z,8.07
2018-08-20T12:04:49.478Z,6.37
2018-08-20T12:07:16.497Z,8.50
2018-08-20T12:09:43.550Z,3.70
2018-08-20T12:12:10.595Z,3.60
2018-08-20T12:14:37.589Z,7.83
2018-08-20T12:17:04.592Z,5.93
2018-08-20T12:19:31.717Z,5.30
2018-08-20T12:21:58.682Z,4.70
2018-08-20T12:24:26.035Z,7.00
2018-08-20T12:26:53.066Z,3.63
2018-08-20T12:29:20.106Z,10.90
2018-08-20T12:31:47.133Z,6.80
2018-08-20T12:34:14.146Z,4.87
2018-08-20T12:36:41.167Z,5.90
2018-08-20T12:39:08.496Z,6.70
2018-08-20T12:41:35.674Z,6.77
2018-08-20T12:44:03.024Z,5.33
2018-08-20T12:46:30.047Z,6.20
2018-08-20T12:48:57.003Z,4.80
2018-08-20T12:51:24.002Z,10.50
2018-08-20T12:53:50.965Z,8.37
2018-08-20T12:56:17.945Z,9.13
2018-08-20T12:58:47.760Z,6.73
2018-08-20T13:01:14.999Z,11.23
2018-08-20T13:03:41.956Z,10.03
2018-08-20T13:06:08.935Z,5.10
2018-08-20T13:08:35.960Z,3.67
2018-08-20T13:11:03.009Z,6.13
2018-08-20T13:13:30.062Z,4.83
2018-08-20T13:15:57.283Z,5.87
2018-08-20T13:18:24.271Z,5.17
2018-08-20T13:20:51.361Z,6.07
2018-08-20T13:23:18.731Z,5.87
2018-08-20T13:25:45.729Z,4.43
2018-08-20T13:28:12.714Z,5.30
2018-08-20T13:30:39.895Z,7.43
2018-08-20T13:33:06.902Z,6.07
2018-08-20T13:35:33.857Z,7.93
2018-08-20T13:38:00.874Z,10.87
2018-08-20T13:40:27.842Z,9.30
2018-08-20T13:43:01.932Z,5.60
2018-08-20T13:45:28.942Z,4.73
2018-08-20T13:47:55.909Z,7.70
2018-08-20T13:50:22.882Z,6.60
2018-08-20T13:52:49.995Z,7.20
2018-08-20T13:55:16.924Z,5.17
2018-08-20T13:57:45.878Z,8.90
2018-08-20T14:00:13.894Z,5.20
2018-08-20T14:02:41.188Z,5.90
2018-08-20T14:05:08.499Z,4.80
2018-08-20T14:07:35.550Z,4.70
2018-08-20T14:10:02.503Z,10.43
2018-08-20T14:12:29.825Z,6.13
2018-08-20T14:14:56.834Z,7.07
2018-08-20T14:17:23.913Z,7.23
2018-08-20T14:19:50.894Z,5.70
2018-08-20T14:22:17.854Z,6.83
2018-08-20T14:24:44.859Z,7.73
2018-08-20T14:27:11.801Z,6.37
2018-08-20T14:29:38.753Z,3.27
2018-08-20T14:32:05.707Z,4.00
2018-08-20T14:34:33.070Z,7.40
2018-08-20T14:37:00.156Z,3.73
2018-08-20T14:39:32.781Z,5.57
2018-08-20T14:41:59.944Z,5.57
2018-08-20T14:44:26.950Z,4.03
2018-08-20T14:46:53.951Z,4.03
2018-08-20T14:49:20.960Z,4.33
2018-08-20T14:51:47.883Z,7.30
2018-08-20T14:54:14.990Z,5.30
2018-08-20T14:56:41.931Z,3.50
2018-08-20T14:59:08.944Z,3.93
2018-08-20T15:01:35.972Z,3.80
2018-08-20T15:04:03.070Z,4.53
2018-08-20T15:06:30.010Z,6.80
2018-08-20T15:08:57.193Z,4.87
2018-08-20T15:11:24.169Z,3.67
2018-08-20T15:13:51.154Z,7.10
2018-08-20T15:16:18.805Z,6.73
2018-08-20T15:18:45.778Z,6.27
2018-08-20T15:21:12.723Z,6.90
2018-08-20T15:23:39.655Z,6.20
2018-08-20T15:26:06.660Z,8.20
2018-08-20T15:28:33.628Z,5.70
2018-08-20T15:31:00.611Z,7.40
2018-08-20T15:33:27.813Z,6.37
2018-08-20T15:35:54.777Z,6.33
2018-08-20T15:38:21.733Z,6.00
2018-08-20T15:40:48.720Z,4.40
2018-08-20T15:43:15.690Z,4.97
2018-08-20T15:45:42.669Z,4.60
2018-08-20T15:48:09.651Z,5.03
2018-08-20T15:50:36.580Z,5.87
2018-08-20T15:53:03.604Z,6.40
2018-08-20T15:55:30.566Z,11.33
2018-08-20T15:57:57.518Z,6.67
2018-08-20T16:00:24.640Z,7.83
2018-08-20T16:02:51.581Z,6.83
2018-08-20T16:05:18.567Z,16.40
2018-08-20T16:07:45.586Z,3.53
2018-08-20T16:10:12.589Z,24.77
2018-08-20T16:12:39.978Z,9.83
2018-08-20T16:15:07.824Z,4.70
2018-08-20T16:17:35.094Z,4.20
2018-08-20T16:20:02.131Z,5.67
2018-08-20T16:22:29.296Z,12.77
2018-08-20T16:24:56.366Z,5.20
2018-08-20T16:27:23.295Z,9.73
2018-08-20T16:29:50.249Z,8.27
2018-08-20T16:32:17.277Z,7.77
2018-08-20T16:34:44.303Z,10.67
2018-08-20T16:37:11.218Z,10.60
2018-08-20T16:39:38.238Z,12.80
2018-08-20T16:42:05.195Z,9.30
2018-08-20T16:44:32.214Z,5.90
2018-08-20T16:46:59.336Z,11.23
2018-08-20T16:49:26.395Z,6.43
2018-08-20T16:51:53.406Z,9.70
2018-08-20T16:54:20.419Z,5.30
2018-08-20T16:56:47.371Z,13.57
2018-08-20T16:59:14.344Z,9.70
2018-08-20T17:01:41.321Z,5.33
2018-08-20T17:04:24.625Z,5.67
2018-08-20T17:06:51.621Z,4.43
2018-08-20T17:09:18.536Z,5.80
2018-08-20T17:11:45.505Z,9.17
2018-08-20T17:14:12.770Z,7.33
2018-08-20T17:16:39.938Z,8.87
2018-08-20T17:19:07.251Z,13.17
2018-08-20T17:21:34.310Z,9.57
2018-08-20T17:24:01.364Z,6.70
2018-08-20T17:26:28.440Z,7.90
2018-08-20T17:29:00.123Z,8.40
2018-08-20T17:31:34.750Z,8.03
2018-08-20T17:34:03.514Z,11.77
2018-08-20T17:36:30.565Z,14.47
2018-08-20T17:38:57.637Z,15.83
2018-08-20T17:41:25.475Z,9.20
2018-08-20T17:43:52.582Z,13.60
2018-08-20T17:46:19.591Z,8.70
2018-08-20T17:48:46.798Z,5.60
2018-08-20T17:51:13.854Z,8.90
2018-08-20T17:53:46.768Z,8.60
2018-08-20T17:56:13.863Z,5.63
2018-08-20T17:58:40.966Z,8.63
2018-08-20T18:01:07.961Z,10.83
2018-08-20T18:03:35.877Z,5.43
2018-08-20T18:06:04.530Z,6.63
2018-08-20T18:08:32.693Z,10.10
2018-08-20T18:10:59.983Z,9.60
2018-08-20T18:13:38.574Z,10.80
2018-08-20T18:16:07.788Z,6.37
2018-08-20T18:18:35.391Z,8.50
2018-08-20T18:21:03.172Z,13.43
2018-08-20T18:23:31.700Z,12.93
2018-08-20T18:25:58.629Z,16.77
2018-08-20T18:28:25.755Z,16.00
2018-08-20T18:31:00.585Z,9.47
2018-08-20T18:33:28.765Z,11.07
2018-08-20T18:35:58.007Z,10.80
2018-08-20T18:38:24.978Z,15.23
2018-08-20T18:40:52.187Z,12.90
2018-08-20T18:43:20.469Z,13.87
2018-08-20T18:45:47.369Z,27.63
2018-08-20T18:48:15.283Z,11.80
2018-08-20T18:50:44.013Z,19.90
2018-08-20T18:53:10.995Z,14.23
2018-08-20T18:55:44.606Z,18.03
2018-08-20T18:58:11.562Z,14.70
2018-08-20T19:00:38.593Z,17.40
2018-08-20T19:03:05.610Z,22.70
2018-08-20T19:05:43.861Z,24.87
2018-08-20T19:08:15.502Z,19.10
2018-08-20T19:10:42.443Z,28.37
2018-08-20T19:13:09.446Z,16.93
2018-08-20T19:15:41.360Z,18.37
2018-08-20T19:18:11.514Z,18.73
2018-08-20T19:20:39.219Z,18.10
2018-08-20T19:23:06.222Z,19.80
2018-08-20T19:25:33.608Z,24.23
2018-08-20T19:28:02.681Z,12.80
2018-08-20T19:30:31.226Z,27.60
2018-08-20T19:32:58.291Z,10.20
2018-08-20T19:35:25.616Z,12.63
2018-08-20T19:37:52.567Z,8.70
2018-08-20T19:40:19.540Z,7.67
2018-08-20T19:42:47.430Z,15.27
2018-08-20T19:45:14.463Z,8.00
2018-08-20T19:47:41.466Z,5.70
2018-08-20T19:50:09.956Z,6.60
2018-08-20T19:52:37.104Z,8.80
2018-08-20T19:55:07.556Z,9.43
2018-08-20T19:57:35.056Z,9.17
2018-08-20T20:00:02.464Z,7.33
2018-08-20T20:02:29.504Z,11.10
2018-08-20T20:05:02.273Z,8.20
2018-08-20T20:07:29.267Z,11.40
2018-08-20T20:09:56.270Z,13.63
2018-08-20T20:12:23.342Z,15.00
2018-08-20T20:14:50.277Z,10.07
2018-08-20T20:17:17.271Z,14.90
2018-08-20T20:19:44.257Z,15.90
2018-08-20T20:22:14.030Z,11.37
2018-08-20T20:24:41.042Z,25.57
2018-08-20T20:27:08.005Z,20.93
2018-08-20T20:29:34.989Z,11.17
2018-08-20T20:32:01.986Z,16.27
2018-08-20T20:34:28.909Z,11.70
2018-08-20T20:36:56.193Z,10.47
2018-08-20T20:39:23.125Z,7.57
2018-08-20T20:41:50.089Z,11.30
2018-08-20T20:44:17.038Z,12.93
2018-08-20T20:46:44.006Z,7.43
2018-08-20T20:49:10.955Z,18.93
2018-08-20T20:51:38.232Z,8.50
2018-08-20T20:54:05.240Z,10.07
2018-08-20T20:56:32.156Z,9.40
2018-08-20T20:58:59.095Z,10.70
2018-08-20T21:01:26.099Z,7.53
2018-08-20T21:03:53.063Z,11.10
2018-08-20T21:06:20.060Z,7.13
2018-08-20T21:08:48.096Z,7.83
2018-08-20T21:11:16.061Z,7.20
2018-08-20T21:13:43.913Z,13.43
2018-08-20T21:16:12.132Z,9.10
2018-08-20T21:18:48.618Z,11.80
2018-08-20T21:21:16.772Z,12.10
2018-08-20T21:23:43.858Z,8.77
2018-08-20T21:26:10.948Z,9.50
2018-08-20T21:28:41.692Z,5.90
2018-08-20T21:31:08.636Z,6.77
2018-08-20T21:33:35.991Z,5.50
2018-08-20T21:36:03.108Z,8.70
2018-08-20T21:38:30.535Z,15.63
2018-08-20T21:40:57.905Z,19.83
2018-08-20T21:43:25.501Z,9.00
2018-08-20T21:45:52.441Z,13.03
2018-08-20T21:48:19.475Z,10.00
2018-08-20T21:50:46.457Z,5.90
2018-08-20T21:53:13.411Z,12.83
2018-08-20T21:55:40.692Z,17.43
2018-08-20T21:58:07.693Z,4.90
2018-08-20T22:00:34.674Z,5.93
2018-08-20T22:03:01.720Z,22.10
2018-08-20T22:05:29.024Z,5.70
2018-08-20T22:07:57.257Z,5.43
2018-08-20T22:10:25.499Z,6.13
2018-08-20T22:12:52.602Z,5.03
2018-08-20T22:15:19.538Z,6.43
2018-08-20T22:17:46.907Z,5.33
2018-08-20T22:20:13.903Z,5.17
2018-08-20T22:22:40.913Z,13.67
2018-08-20T22:25:14.149Z,4.60
2018-08-20T22:27:46.948Z,4.73
2018-08-20T22:30:13.969Z,4.80
2018-08-20T22:32:40.891Z,3.80
2018-08-20T22:35:14.033Z,5.07
2018-08-20T22:37:41.181Z,3.90
2018-08-20T22:40:08.507Z,4.20
2018-08-20T22:42:51.458Z,3.40
2018-08-20T22:45:19.446Z,4.93
2018-08-20T22:47:47.489Z,9.80
2018-08-20T22:50:14.538Z,4.20
2018-08-20T22:52:46.101Z,5.03
2018-08-20T22:55:14.901Z,5.60
2018-08-20T22:57:49.015Z,5.90
2018-08-20T23:00:23.422Z,5.50
2018-08-20T23:02:51.126Z,2.93
2018-08-20T23:05:18.127Z,7.70
2018-08-20T23:07:45.119Z,4.93
2018-08-20T23:10:12.117Z,6.13
2018-08-20T23:12:40.421Z,3.27
2018-08-20T23:15:07.721Z,8.17
2018-08-20T23:17:34.675Z,6.87
2018-08-20T23:20:01.670Z,10.60
2018-08-20T23:22:29.546Z,4.50
2018-08-20T23:24:57.448Z,4.33
2018-08-20T23:27:28.844Z,4.30
2018-08-20T23:29:55.813Z,8.80
2018-08-20T23:32:23.179Z,4.80
2018-08-20T23:34:50.923Z,8.53
2018-08-20T23:37:17.894Z,5.13
2018-08-20T23:39:45.002Z,6.20
2018-08-20T23:42:11.992Z,2.73
2018-08-20T23:44:39.313Z,6.17
2018-08-20T23:47:06.264Z,2.97
2018-08-20T23:49:33.210Z,5.33
2018-08-20T23:52:00.192Z,3.57
2018-08-20T23:54:27.152Z,3.00
2018-08-20T23:56:54.120Z,5.90
2018-08-20T23:59:21.097Z,3.67
